CCGS Neocaligus — CG7677 — position and weather

sailwx.info

Track history (hours):
 
Tides and Currents Weather Stations Pressure Air Temp Water Temp Dewpoint Dewpoint Depression Visibility Wind Speed Wind Dir Waves Ship Positions

CCGS Neocaligus

Last reported at 2015-Mar-04 18:13 UTC. Time now 2015-Mar-04 18:56 UTC.
Position N 49°28' W 124°41'.

Length 23 m; draft 3.5 m.

Type: Fishing. MMSI: 316001759.

Date/timePositionNaut miles runAvg speedWind from/ knotsBaromVisibWave heightAir tempDewpointWater temp
2015-Mar-04 18:13N 49°28' W 124°41'2 2.6
2015-Mar-04 17:27N 49°28' W 124°44'9 2.9
2015-Mar-04 14:28N 49°35' W 124°53'5 0.9
2015-Mar-04 08:24N 49°31' W 124°49'1 0.1
2015-Mar-04 03:27N 49°31' W 124°49'0 0.5
2015-Mar-04 02:32N 49°32' W 124°49'4 3.8
2015-Mar-04 01:24N 49°28' W 124°45'12 1.5
2015-Mar-03 17:17N 49°39' W 124°54'7 6.5
2015-Mar-03 16:12N 49°32' W 124°50'2 3.2
2015-Mar-03 15:33N 49°31' W 124°48'6 5.6
2015-Mar-03 14:33N 49°28' W 124°41'2 1.6
2015-Mar-03 13:33N 49°30' W 124°41'0 0.4
2015-Mar-03 12:29N 49°30' W 124°41'0 0.0
2015-Mar-03 11:29N 49°30' W 124°41'0 0.0
2015-Mar-03 06:23N 49°30' W 124°41'0 0.0
2015-Mar-03 05:29N 49°30' W 124°41'0 0.0
2015-Mar-03 04:17N 49°30' W 124°41'0 0.0
2015-Mar-03 02:32N 49°30' W 124°41'2 0.5
2015-Mar-02 22:23N 49°28' W 124°43'2 1.1
2015-Mar-02 20:17N 49°27' W 124°40'0 0.3
2015-Mar-02 19:32N 49°27' W 124°40'5 4.1
2015-Mar-02 18:14N 49°30' W 124°47'5 6.2
2015-Mar-02 17:28N 49°34' W 124°52'5 5.2
2015-Mar-02 16:32N 49°30' W 124°47'4 3.8
2015-Mar-02 15:33N 49°28' W 124°42'1 1.0
2015-Mar-02 14:26N 49°28' W 124°41'5 5.5
2015-Mar-02 13:33N 49°30' W 124°47'1 1.0
2015-Mar-02 12:10N 49°31' W 124°49'0 0.0
2015-Mar-02 11:28N 49°31' W 124°49'0 0.0
2015-Mar-02 10:28N 49°31' W 124°49'0 0.0
2015-Mar-02 09:16N 49°31' W 124°49'0 0.0
2015-Mar-02 08:28N 49°31' W 124°49'0 0.0
2015-Mar-02 06:28N 49°31' W 124°49'0 0.0
2015-Mar-02 05:28N 49°31' W 124°49'0 0.3
2015-Mar-02 04:04N 49°31' W 124°49'6 4.0
2015-Mar-02 02:34N 49°28' W 124°40'3 2.2
2015-Mar-02 01:13N 49°25' W 124°37'0 0.2
2015-Mar-02 00:25N 49°25' W 124°37'2 1.8
2015-Mar-01 23:21N 49°26' W 124°40'3 1.6
2015-Mar-01 21:22N 49°29' W 124°43'5 5.4
2015-Mar-01 20:32N 49°26' W 124°38'1 1.5
2015-Mar-01 19:32N 49°25' W 124°36'5 4.9
2015-Mar-01 18:33N 49°23' W 124°29'6 6.1
2015-Mar-01 17:33N 49°21' W 124°20'11 8.2
2015-Mar-01 16:13N 49°17' W 124°05'5 8.2
2015-Mar-01 15:33N 49°14' W 123°57'2 1.4
2015-Mar-01 14:30N 49°13' W 123°57'0 0.0
2015-Mar-01 13:30N 49°13' W 123°57'0 0.0
2015-Mar-01 12:18N 49°13' W 123°57'0 0.0
2015-Mar-01 11:24N 49°13' W 123°57'0 0.0
2015-Mar-01 10:30N 49°13' W 123°57'0 0.0
2015-Mar-01 09:30N 49°13' W 123°57'0 0.0
2015-Mar-01 08:30N 49°13' W 123°57'0 0.0
2015-Mar-01 07:06N 49°13' W 123°57'0 0.0
2015-Mar-01 06:12N 49°13' W 123°57'0 0.0
2015-Mar-01 05:24N 49°13' W 123°57'0 0.0
2015-Mar-01 04:24N 49°13' W 123°57'0 0.0
2015-Mar-01 03:30N 49°13' W 123°57'0 0.0
2015-Mar-01 01:33N 49°13' W 123°57'0 0.0
2015-Mar-01 00:15N 49°13' W 123°57'0 0.0
2015-Feb-28 23:33N 49°13' W 123°57'0 0.0
2015-Feb-28 22:33N 49°13' W 123°57'0 0.0
2015-Feb-28 21:15N 49°13' W 123°57'0 0.0
2015-Feb-28 20:09N 49°13' W 123°57'0 0.0
2015-Feb-28 18:18N 49°13' W 123°57'0 0.0
2015-Feb-28 17:30N 49°13' W 123°57'0 0.0
2015-Feb-28 16:30N 49°13' W 123°57'0 0.0
2015-Feb-28 15:27N 49°13' W 123°57'0 0.0
2015-Feb-28 14:12N 49°13' W 123°57'0 0.0
2015-Feb-28 13:24N 49°13' W 123°57'0 0.0
2015-Feb-28 12:30N 49°13' W 123°57'0 0.0
2015-Feb-28 11:18N 49°13' W 123°57'0 0.0
2015-Feb-28 10:30N 49°13' W 123°57'0 0.0
2015-Feb-28 09:06N 49°13' W 123°57'0 0.0
2015-Feb-28 08:27N 49°13' W 123°57'0 0.0
2015-Feb-28 07:27N 49°13' W 123°57'0 0.0
2015-Feb-28 06:33N 49°13' W 123°57'0 0.0
2015-Feb-28 05:21N 49°13' W 123°57'0 0.0
2015-Feb-28 03:33N 49°13' W 123°57'0 0.0
2015-Feb-28 02:30N 49°13' W 123°57'0 0.0
2015-Feb-28 01:27N 49°13' W 123°57'0 0.0
2015-Feb-28 00:30N 49°13' W 123°57'0 0.0
2015-Feb-27 23:24N 49°13' W 123°57'0 0.0
2015-Feb-27 22:30N 49°13' W 123°57'0 0.0
2015-Feb-27 21:18N 49°13' W 123°57'0 0.0
2015-Feb-27 20:30N 49°13' W 123°57'0 0.0
2015-Feb-27 17:21N 49°13' W 123°57'0 0.0
2015-Feb-27 16:30N 49°13' W 123°57'0 0.0
2015-Feb-27 14:30N 49°13' W 123°57'0 0.0
2015-Feb-27 13:24N 49°13' W 123°57'0 0.0
2015-Feb-27 12:30N 49°13' W 123°57'0 0.0
2015-Feb-27 11:27N 49°13' W 123°57'0 0.0
2015-Feb-27 10:33N 49°13' W 123°57'0 0.0
2015-Feb-27 09:21N 49°13' W 123°57'0 0.0
2015-Feb-27 08:33N 49°13' W 123°57'0 0.0
2015-Feb-27 06:09N 49°13' W 123°57'0 0.0
2015-Feb-27 05:33N 49°13' W 123°57'0 0.0
2015-Feb-27 04:27N 49°13' W 123°57'0 0.0
2015-Feb-27 03:27N 49°13' W 123°57'0 0.0
2015-Feb-27 02:33N 49°13' W 123°57'0 0.0
2015-Feb-27 01:27N 49°13' W 123°57'0 0.0
2015-Feb-27 00:33N 49°13' W 123°57'0 0.0
2015-Feb-26 19:15N 49°13' W 123°57'0 0.0
2015-Feb-26 18:33N 49°13' W 123°57'0 0.0
2015-Feb-26 17:33N 49°13' W 123°57'0 0.0
2015-Feb-26 16:33N 49°13' W 123°57'0 0.0
2015-Feb-26 15:33N 49°13' W 123°57'0 0.0
2015-Feb-26 14:33N 49°13' W 123°57'0 0.0
2015-Feb-26 13:33N 49°13' W 123°57'0 0.0
2015-Feb-26 12:33N 49°13' W 123°57'0 0.0
2015-Feb-26 11:27N 49°13' W 123°57'0 0.0
2015-Feb-26 10:33N 49°13' W 123°57'0 0.0
2015-Feb-26 09:33N 49°13' W 123°57'0 0.0
2015-Feb-26 08:27N 49°13' W 123°57'0 0.0
2015-Feb-26 07:33N 49°13' W 123°57'0 0.0
2015-Feb-26 06:33N 49°13' W 123°57'0 0.0
2015-Feb-26 05:33N 49°13' W 123°57'0 0.0
2015-Feb-26 04:27N 49°13' W 123°57'0 0.0
2015-Feb-26 03:33N 49°13' W 123°57'0 0.0
2015-Feb-26 02:33N 49°13' W 123°57'0 0.0
2015-Feb-26 01:27N 49°13' W 123°57'0 0.0
2015-Feb-25 22:27N 49°13' W 123°57'0 0.0
2015-Feb-25 21:33N 49°13' W 123°57'0 0.0
2015-Feb-25 20:33N 49°13' W 123°57'0 0.0
2015-Feb-25 19:33N 49°13' W 123°57'0 0.0
2015-Feb-25 18:33N 49°13' W 123°57'0 0.0
2015-Feb-25 17:27N 49°13' W 123°57'0 0.0
2015-Feb-25 16:33N 49°13' W 123°57'0 0.0
2015-Feb-25 14:33N 49°13' W 123°57'0 0.0
2015-Feb-25 13:33N 49°13' W 123°57'0 0.0
2015-Feb-25 12:33N 49°13' W 123°57'0 0.0
2015-Feb-25 11:21N 49°13' W 123°57'0 0.0
2015-Feb-25 10:33N 49°13' W 123°57'0 0.0
2015-Feb-25 09:33N 49°13' W 123°57'0 0.0
2015-Feb-25 08:27N 49°13' W 123°57'0 0.0
2015-Feb-25 07:18N 49°13' W 123°57'0 0.0
2015-Feb-25 06:33N 49°13' W 123°57'0 0.0
2015-Feb-25 05:27N 49°13' W 123°57'0 0.0
2015-Feb-25 04:33N 49°13' W 123°57'0 0.0
2015-Feb-25 03:33N 49°13' W 123°57'0 0.0
2015-Feb-25 02:27N 49°13' W 123°57'0 0.0
2015-Feb-25 01:33N 49°13' W 123°57'0 0.0
2015-Feb-24 23:27N 49°13' W 123°57'0 0.0
2015-Feb-24 21:09N 49°13' W 123°57'0 0.0
2015-Feb-24 20:09N 49°13' W 123°57'0 0.0
2015-Feb-24 18:24N 49°13' W 123°57'0 0.0
2015-Feb-24 17:12N 49°13' W 123°57'0 0.0
2015-Feb-24 16:12N 49°13' W 123°57'0 0.0
2015-Feb-24 15:18N 49°13' W 123°57'0 0.0
2015-Feb-24 14:18N 49°13' W 123°57'0 0.0
2015-Feb-24 13:12N 49°13' W 123°57'0 0.0
2015-Feb-24 11:12N 49°13' W 123°57'0 0.0
2015-Feb-24 10:24N 49°13' W 123°57'0 0.0
2015-Feb-24 09:30N 49°13' W 123°57'0 0.0
2015-Feb-24 08:06N 49°13' W 123°57'0 0.0
2015-Feb-24 07:30N 49°13' W 123°57'0 0.0
2015-Feb-24 06:18N 49°13' W 123°57'0 0.0
2015-Feb-24 05:24N 49°13' W 123°57'0 0.0
2015-Feb-24 04:30N 49°13' W 123°57'0 0.0
2015-Feb-24 03:21N 49°13' W 123°57'0 0.0
2015-Feb-23 21:30N 49°13' W 123°57'0 0.0
2015-Feb-23 20:30N 49°13' W 123°57'0 0.0
2015-Feb-23 19:30N 49°13' W 123°57'0 0.0
2015-Feb-23 18:18N 49°13' W 123°57'0 0.0
2015-Feb-23 17:18N 49°13' W 123°57'0 0.0
2015-Feb-23 16:30N 49°13' W 123°57'0 0.0
2015-Feb-23 15:24N 49°13' W 123°57'0 0.0
2015-Feb-23 14:30N 49°13' W 123°57'0 0.0
2015-Feb-23 13:12N 49°13' W 123°57'0 0.0
2015-Feb-23 12:30N 49°13' W 123°57'0 0.0
2015-Feb-23 10:18N 49°13' W 123°57'0 0.0
2015-Feb-23 09:30N 49°13' W 123°57'0 0.0
2015-Feb-23 08:30N 49°13' W 123°57'0 0.0
2015-Feb-23 07:18N 49°13' W 123°57'0 0.0
2015-Feb-23 05:24N 49°13' W 123°57'0 0.0
2015-Feb-23 02:12N 49°13' W 123°57'0 0.0
2015-Feb-22 21:12N 49°13' W 123°57'0 0.0
2015-Feb-22 20:06N 49°13' W 123°57'0 0.0
2015-Feb-22 19:18N 49°13' W 123°57'0 0.0
2015-Feb-22 18:18N 49°13' W 123°57'  
Track history (hours):
 
Tides and Currents Weather Stations Pressure Air Temp Water Temp Dewpoint Dewpoint Depression Visibility Wind Speed Wind Dir Waves Ship Positions

CCGS Neocaligus

Last reported at 2015-Mar-04 18:13 UTC. Time now 2015-Mar-04 18:56 UTC.
Position N 49°28' W 124°41'.

Length 23 m; draft 3.5 m.

Type: Fishing. MMSI: 316001759.

Date/timePositionNaut miles runAvg speedWind from/ knotsBaromVisibWave heightAir tempDewpointWater temp
2015-Mar-04 18:13N 49°28' W 124°41'2 2.6
2015-Mar-04 17:27N 49°28' W 124°44'9 2.9
2015-Mar-04 14:28N 49°35' W 124°53'5 0.9
2015-Mar-04 08:24N 49°31' W 124°49'1 0.1
2015-Mar-04 03:27N 49°31' W 124°49'0 0.5
2015-Mar-04 02:32N 49°32' W 124°49'4 3.8
2015-Mar-04 01:24N 49°28' W 124°45'12 1.5
2015-Mar-03 17:17N 49°39' W 124°54'7 6.5
2015-Mar-03 16:12N 49°32' W 124°50'2 3.2
2015-Mar-03 15:33N 49°31' W 124°48'6 5.6
2015-Mar-03 14:33N 49°28' W 124°41'2 1.6
2015-Mar-03 13:33N 49°30' W 124°41'0 0.4
2015-Mar-03 12:29N 49°30' W 124°41'0 0.0
2015-Mar-03 11:29N 49°30' W 124°41'0 0.0
2015-Mar-03 06:23N 49°30' W 124°41'0 0.0
2015-Mar-03 05:29N 49°30' W 124°41'0 0.0
2015-Mar-03 04:17N 49°30' W 124°41'0 0.0
2015-Mar-03 02:32N 49°30' W 124°41'2 0.5
2015-Mar-02 22:23N 49°28' W 124°43'2 1.1
2015-Mar-02 20:17N 49°27' W 124°40'0 0.3
2015-Mar-02 19:32N 49°27' W 124°40'5 4.1
2015-Mar-02 18:14N 49°30' W 124°47'5 6.2
2015-Mar-02 17:28N 49°34' W 124°52'5 5.2
2015-Mar-02 16:32N 49°30' W 124°47'4 3.8
2015-Mar-02 15:33N 49°28' W 124°42'1 1.0
2015-Mar-02 14:26N 49°28' W 124°41'5 5.5
2015-Mar-02 13:33N 49°30' W 124°47'1 1.0
2015-Mar-02 12:10N 49°31' W 124°49'0 0.0
2015-Mar-02 11:28N 49°31' W 124°49'0 0.0
2015-Mar-02 10:28N 49°31' W 124°49'0 0.0
2015-Mar-02 09:16N 49°31' W 124°49'0 0.0
2015-Mar-02 08:28N 49°31' W 124°49'0 0.0
2015-Mar-02 06:28N 49°31' W 124°49'0 0.0
2015-Mar-02 05:28N 49°31' W 124°49'0 0.3
2015-Mar-02 04:04N 49°31' W 124°49'6 4.0
2015-Mar-02 02:34N 49°28' W 124°40'3 2.2
2015-Mar-02 01:13N 49°25' W 124°37'0 0.2
2015-Mar-02 00:25N 49°25' W 124°37'2 1.8
2015-Mar-01 23:21N 49°26' W 124°40'3 1.6
2015-Mar-01 21:22N 49°29' W 124°43'5 5.4
2015-Mar-01 20:32N 49°26' W 124°38'1 1.5
2015-Mar-01 19:32N 49°25' W 124°36'5 4.9
2015-Mar-01 18:33N 49°23' W 124°29'6 6.1
2015-Mar-01 17:33N 49°21' W 124°20'11 8.2
2015-Mar-01 16:13N 49°17' W 124°05'5 8.2
2015-Mar-01 15:33N 49°14' W 123°57'2 1.4
2015-Mar-01 14:30N 49°13' W 123°57'0 0.0
2015-Mar-01 13:30N 49°13' W 123°57'0 0.0
2015-Mar-01 12:18N 49°13' W 123°57'0 0.0
2015-Mar-01 11:24N 49°13' W 123°57'0 0.0
2015-Mar-01 10:30N 49°13' W 123°57'0 0.0
2015-Mar-01 09:30N 49°13' W 123°57'0 0.0
2015-Mar-01 08:30N 49°13' W 123°57'0 0.0
2015-Mar-01 07:06N 49°13' W 123°57'0 0.0
2015-Mar-01 06:12N 49°13' W 123°57'0 0.0
2015-Mar-01 05:24N 49°13' W 123°57'0 0.0
2015-Mar-01 04:24N 49°13' W 123°57'0 0.0
2015-Mar-01 03:30N 49°13' W 123°57'0 0.0
2015-Mar-01 01:33N 49°13' W 123°57'0 0.0
2015-Mar-01 00:15N 49°13' W 123°57'0 0.0
2015-Feb-28 23:33N 49°13' W 123°57'0 0.0
2015-Feb-28 22:33N 49°13' W 123°57'0 0.0
2015-Feb-28 21:15N 49°13' W 123°57'0 0.0
2015-Feb-28 20:09N 49°13' W 123°57'0 0.0
2015-Feb-28 18:18N 49°13' W 123°57'0 0.0
2015-Feb-28 17:30N 49°13' W 123°57'0 0.0
2015-Feb-28 16:30N 49°13' W 123°57'0 0.0
2015-Feb-28 15:27N 49°13' W 123°57'0 0.0
2015-Feb-28 14:12N 49°13' W 123°57'0 0.0
2015-Feb-28 13:24N 49°13' W 123°57'0 0.0
2015-Feb-28 12:30N 49°13' W 123°57'0 0.0
2015-Feb-28 11:18N 49°13' W 123°57'0 0.0
2015-Feb-28 10:30N 49°13' W 123°57'0 0.0
2015-Feb-28 09:06N 49°13' W 123°57'0 0.0
2015-Feb-28 08:27N 49°13' W 123°57'0 0.0
2015-Feb-28 07:27N 49°13' W 123°57'0 0.0
2015-Feb-28 06:33N 49°13' W 123°57'0 0.0
2015-Feb-28 05:21N 49°13' W 123°57'0 0.0
2015-Feb-28 03:33N 49°13' W 123°57'0 0.0
2015-Feb-28 02:30N 49°13' W 123°57'0 0.0
2015-Feb-28 01:27N 49°13' W 123°57'0 0.0
2015-Feb-28 00:30N 49°13' W 123°57'0 0.0
2015-Feb-27 23:24N 49°13' W 123°57'0 0.0
2015-Feb-27 22:30N 49°13' W 123°57'0 0.0
2015-Feb-27 21:18N 49°13' W 123°57'0 0.0
2015-Feb-27 20:30N 49°13' W 123°57'0 0.0
2015-Feb-27 17:21N 49°13' W 123°57'0 0.0
2015-Feb-27 16:30N 49°13' W 123°57'0 0.0
2015-Feb-27 14:30N 49°13' W 123°57'0 0.0
2015-Feb-27 13:24N 49°13' W 123°57'0 0.0
2015-Feb-27 12:30N 49°13' W 123°57'0 0.0
2015-Feb-27 11:27N 49°13' W 123°57'0 0.0
2015-Feb-27 10:33N 49°13' W 123°57'0 0.0
2015-Feb-27 09:21N 49°13' W 123°57'0 0.0
2015-Feb-27 08:33N 49°13' W 123°57'0 0.0
2015-Feb-27 06:09N 49°13' W 123°57'0 0.0
2015-Feb-27 05:33N 49°13' W 123°57'0 0.0
2015-Feb-27 04:27N 49°13' W 123°57'0 0.0
2015-Feb-27 03:27N 49°13' W 123°57'0 0.0
2015-Feb-27 02:33N 49°13' W 123°57'0 0.0
2015-Feb-27 01:27N 49°13' W 123°57'0 0.0
2015-Feb-27 00:33N 49°13' W 123°57'0 0.0
2015-Feb-26 19:15N 49°13' W 123°57'0 0.0
2015-Feb-26 18:33N 49°13' W 123°57'0 0.0
2015-Feb-26 17:33N 49°13' W 123°57'0 0.0
2015-Feb-26 16:33N 49°13' W 123°57'0 0.0
2015-Feb-26 15:33N 49°13' W 123°57'0 0.0
2015-Feb-26 14:33N 49°13' W 123°57'0 0.0
2015-Feb-26 13:33N 49°13' W 123°57'0 0.0
2015-Feb-26 12:33N 49°13' W 123°57'0 0.0
2015-Feb-26 11:27N 49°13' W 123°57'0 0.0
2015-Feb-26 10:33N 49°13' W 123°57'0 0.0
2015-Feb-26 09:33N 49°13' W 123°57'0 0.0
2015-Feb-26 08:27N 49°13' W 123°57'0 0.0
2015-Feb-26 07:33N 49°13' W 123°57'0 0.0
2015-Feb-26 06:33N 49°13' W 123°57'0 0.0
2015-Feb-26 05:33N 49°13' W 123°57'0 0.0
2015-Feb-26 04:27N 49°13' W 123°57'0 0.0
2015-Feb-26 03:33N 49°13' W 123°57'0 0.0
2015-Feb-26 02:33N 49°13' W 123°57'0 0.0
2015-Feb-26 01:27N 49°13' W 123°57'0 0.0
2015-Feb-25 22:27N 49°13' W 123°57'0 0.0
2015-Feb-25 21:33N 49°13' W 123°57'0 0.0
2015-Feb-25 20:33N 49°13' W 123°57'0 0.0
2015-Feb-25 19:33N 49°13' W 123°57'0 0.0
2015-Feb-25 18:33N 49°13' W 123°57'0 0.0
2015-Feb-25 17:27N 49°13' W 123°57'0 0.0
2015-Feb-25 16:33N 49°13' W 123°57'0 0.0
2015-Feb-25 14:33N 49°13' W 123°57'0 0.0
2015-Feb-25 13:33N 49°13' W 123°57'0 0.0
2015-Feb-25 12:33N 49°13' W 123°57'0 0.0
2015-Feb-25 11:21N 49°13' W 123°57'0 0.0
2015-Feb-25 10:33N 49°13' W 123°57'0 0.0
2015-Feb-25 09:33N 49°13' W 123°57'0 0.0
2015-Feb-25 08:27N 49°13' W 123°57'0 0.0
2015-Feb-25 07:18N 49°13' W 123°57'0 0.0
2015-Feb-25 06:33N 49°13' W 123°57'0 0.0
2015-Feb-25 05:27N 49°13' W 123°57'0 0.0
2015-Feb-25 04:33N 49°13' W 123°57'0 0.0
2015-Feb-25 03:33N 49°13' W 123°57'0 0.0
2015-Feb-25 02:27N 49°13' W 123°57'0 0.0
2015-Feb-25 01:33N 49°13' W 123°57'0 0.0
2015-Feb-24 23:27N 49°13' W 123°57'0 0.0
2015-Feb-24 21:09N 49°13' W 123°57'0 0.0
2015-Feb-24 20:09N 49°13' W 123°57'0 0.0
2015-Feb-24 18:24N 49°13' W 123°57'0 0.0
2015-Feb-24 17:12N 49°13' W 123°57'0 0.0
2015-Feb-24 16:12N 49°13' W 123°57'0 0.0
2015-Feb-24 15:18N 49°13' W 123°57'0 0.0
2015-Feb-24 14:18N 49°13' W 123°57'0 0.0
2015-Feb-24 13:12N 49°13' W 123°57'0 0.0
2015-Feb-24 11:12N 49°13' W 123°57'0 0.0
2015-Feb-24 10:24N 49°13' W 123°57'0 0.0
2015-Feb-24 09:30N 49°13' W 123°57'0 0.0
2015-Feb-24 08:06N 49°13' W 123°57'0 0.0
2015-Feb-24 07:30N 49°13' W 123°57'0 0.0
2015-Feb-24 06:18N 49°13' W 123°57'0 0.0
2015-Feb-24 05:24N 49°13' W 123°57'0 0.0
2015-Feb-24 04:30N 49°13' W 123°57'0 0.0
2015-Feb-24 03:21N 49°13' W 123°57'0 0.0
2015-Feb-23 21:30N 49°13' W 123°57'0 0.0
2015-Feb-23 20:30N 49°13' W 123°57'0 0.0
2015-Feb-23 19:30N 49°13' W 123°57'0 0.0
2015-Feb-23 18:18N 49°13' W 123°57'0 0.0
2015-Feb-23 17:18N 49°13' W 123°57'0 0.0
2015-Feb-23 16:30N 49°13' W 123°57'0 0.0
2015-Feb-23 15:24N 49°13' W 123°57'0 0.0
2015-Feb-23 14:30N 49°13' W 123°57'0 0.0
2015-Feb-23 13:12N 49°13' W 123°57'0 0.0
2015-Feb-23 12:30N 49°13' W 123°57'0 0.0
2015-Feb-23 10:18N 49°13' W 123°57'0 0.0
2015-Feb-23 09:30N 49°13' W 123°57'0 0.0
2015-Feb-23 08:30N 49°13' W 123°57'0 0.0
2015-Feb-23 07:18N 49°13' W 123°57'0 0.0
2015-Feb-23 05:24N 49°13' W 123°57'0 0.0
2015-Feb-23 02:12N 49°13' W 123°57'0 0.0
2015-Feb-22 21:12N 49°13' W 123°57'0 0.0
2015-Feb-22 20:06N 49°13' W 123°57'0 0.0
2015-Feb-22 19:18N 49°13' W 123°57'0 0.0
2015-Feb-22 18:18N 49°13' W 123°57'  

Dump ship's entire track history